sensor_id;sensor_type;location;lat;lon;timestamp;temperature;humidity
19292;DHT22;9779;51.756;7.450;2024-02-21T00:00:15;8.30;1.00
19292;DHT22;9779;51.756;7.450;2024-02-21T00:02:41;8.40;1.00
19292;DHT22;9779;51.756;7.450;2024-02-21T00:05:07;8.40;1.00
19292;DHT22;9779;51.756;7.450;2024-02-21T00:07:32;8.30;1.00
19292;DHT22;9779;51.756;7.450;2024-02-21T00:09:58;8.30;1.00
19292;DHT22;9779;51.756;7.450;2024-02-21T00:12:23;8.30;1.00
19292;DHT22;9779;51.756;7.450;2024-02-21T00:14:49;8.40;1.00
19292;DHT22;9779;51.756;7.450;2024-02-21T00:17:15;8.40;1.00
19292;DHT22;9779;51.756;7.450;2024-02-21T00:19:40;8.30;1.00
19292;DHT22;9779;51.756;7.450;2024-02-21T00:22:06;8.30;1.00
19292;DHT22;9779;51.756;7.450;2024-02-21T00:24:32;8.30;1.00
19292;DHT22;9779;51.756;7.450;2024-02-21T00:26:57;8.30;1.00
19292;DHT22;9779;51.756;7.450;2024-02-21T00:29:23;8.30;1.00
19292;DHT22;9779;51.756;7.450;2024-02-21T00:31:49;8.30;1.00
19292;DHT22;9779;51.756;7.450;2024-02-21T00:34:15;8.40;1.00
19292;DHT22;9779;51.756;7.450;2024-02-21T00:36:40;8.30;1.00
19292;DHT22;9779;51.756;7.450;2024-02-21T00:39:06;8.30;1.00
19292;DHT22;9779;51.756;7.450;2024-02-21T00:41:32;8.30;1.00
19292;DHT22;9779;51.756;7.450;2024-02-21T00:43:57;8.30;1.00
19292;DHT22;9779;51.756;7.450;2024-02-21T00:46:23;8.30;1.00
19292;DHT22;9779;51.756;7.450;2024-02-21T00:48:49;8.30;1.00
19292;DHT22;9779;51.756;7.450;2024-02-21T00:51:16;8.40;1.00
19292;DHT22;9779;51.756;7.450;2024-02-21T00:53:42;8.40;1.00
19292;DHT22;9779;51.756;7.450;2024-02-21T00:56:08;8.30;1.00
19292;DHT22;9779;51.756;7.450;2024-02-21T00:58:33;8.30;1.00
19292;DHT22;9779;51.756;7.450;2024-02-21T01:01:00;8.30;1.00
19292;DHT22;9779;51.756;7.450;2024-02-21T01:03:26;8.30;1.00
19292;DHT22;9779;51.756;7.450;2024-02-21T01:05:54;8.30;1.00
19292;DHT22;9779;51.756;7.450;2024-02-21T01:08:20;8.30;1.00
19292;DHT22;9779;51.756;7.450;2024-02-21T01:10:45;8.30;1.00
19292;DHT22;9779;51.756;7.450;2024-02-21T01:13:11;8.30;1.00
19292;DHT22;9779;51.756;7.450;2024-02-21T01:15:37;8.30;1.00
19292;DHT22;9779;51.756;7.450;2024-02-21T01:18:02;8.30;1.00
19292;DHT22;9779;51.756;7.450;2024-02-21T01:20:28;8.30;1.00
19292;DHT22;9779;51.756;7.450;2024-02-21T01:22:54;8.20;1.00
19292;DHT22;9779;51.756;7.450;2024-02-21T01:25:19;8.20;1.00
19292;DHT22;9779;51.756;7.450;2024-02-21T01:27:45;8.30;1.00
19292;DHT22;9779;51.756;7.450;2024-02-21T01:30:11;8.20;1.00
19292;DHT22;9779;51.756;7.450;2024-02-21T01:32:37;8.20;1.00
19292;DHT22;9779;51.756;7.450;2024-02-21T01:35:02;8.20;1.00
19292;DHT22;9779;51.756;7.450;2024-02-21T01:37:28;8.20;1.00
19292;DHT22;9779;51.756;7.450;2024-02-21T01:39:54;8.20;1.00
19292;DHT22;9779;51.756;7.450;2024-02-21T01:42:19;8.20;1.00
19292;DHT22;9779;51.756;7.450;2024-02-21T01:44:45;8.20;1.00
19292;DHT22;9779;51.756;7.450;2024-02-21T01:47:11;8.20;1.00
19292;DHT22;9779;51.756;7.450;2024-02-21T01:49:40;8.20;1.00
19292;DHT22;9779;51.756;7.450;2024-02-21T01:52:07;8.20;1.00
19292;DHT22;9779;51.756;7.450;2024-02-21T01:54:32;8.20;1.00
19292;DHT22;9779;51.756;7.450;2024-02-21T01:56:58;8.20;1.00
19292;DHT22;9779;51.756;7.450;2024-02-21T01:59:24;8.20;1.00
19292;DHT22;9779;51.756;7.450;2024-02-21T02:01:51;8.20;1.00
19292;DHT22;9779;51.756;7.450;2024-02-21T02:04:17;8.20;1.00
19292;DHT22;9779;51.756;7.450;2024-02-21T02:06:44;8.20;1.00
19292;DHT22;9779;51.756;7.450;2024-02-21T02:09:10;8.20;1.00
19292;DHT22;9779;51.756;7.450;2024-02-21T02:11:35;8.20;1.00
19292;DHT22;9779;51.756;7.450;2024-02-21T02:14:01;8.30;1.00
19292;DHT22;9779;51.756;7.450;2024-02-21T02:16:27;8.20;1.00
19292;DHT22;9779;51.756;7.450;2024-02-21T02:18:52;8.30;1.00
19292;DHT22;9779;51.756;7.450;2024-02-21T02:21:34;8.30;1.00
19292;DHT22;9779;51.756;7.450;2024-02-21T02:24:04;8.30;1.00
19292;DHT22;9779;51.756;7.450;2024-02-21T02:26:30;8.30;1.00
19292;DHT22;9779;51.756;7.450;2024-02-21T02:28:55;8.30;1.00
19292;DHT22;9779;51.756;7.450;2024-02-21T02:31:21;8.30;1.00
19292;DHT22;9779;51.756;7.450;2024-02-21T02:33:47;8.30;1.00
19292;DHT22;9779;51.756;7.450;2024-02-21T02:36:13;8.30;1.00
19292;DHT22;9779;51.756;7.450;2024-02-21T02:38:39;8.30;1.00
19292;DHT22;9779;51.756;7.450;2024-02-21T02:41:04;8.30;1.00
19292;DHT22;9779;51.756;7.450;2024-02-21T02:43:30;8.20;1.00
19292;DHT22;9779;51.756;7.450;2024-02-21T02:45:56;8.20;1.00
19292;DHT22;9779;51.756;7.450;2024-02-21T02:48:22;8.20;1.00
19292;DHT22;9779;51.756;7.450;2024-02-21T02:50:48;8.20;1.00
19292;DHT22;9779;51.756;7.450;2024-02-21T02:53:15;8.20;1.00
19292;DHT22;9779;51.756;7.450;2024-02-21T02:55:40;8.20;1.00
19292;DHT22;9779;51.756;7.450;2024-02-21T02:58:06;8.20;1.00
19292;DHT22;9779;51.756;7.450;2024-02-21T03:00:31;8.10;1.00
19292;DHT22;9779;51.756;7.450;2024-02-21T03:03:01;8.10;1.00
19292;DHT22;9779;51.756;7.450;2024-02-21T03:05:29;8.10;1.00
19292;DHT22;9779;51.756;7.450;2024-02-21T03:07:55;8.10;1.00
19292;DHT22;9779;51.756;7.450;2024-02-21T03:10:20;8.10;1.00
19292;DHT22;9779;51.756;7.450;2024-02-21T03:12:46;8.10;1.00
19292;DHT22;9779;51.756;7.450;2024-02-21T03:15:13;8.10;1.00
19292;DHT22;9779;51.756;7.450;2024-02-21T03:17:38;8.10;1.00
19292;DHT22;9779;51.756;7.450;2024-02-21T03:20:05;8.10;1.00
19292;DHT22;9779;51.756;7.450;2024-02-21T03:22:31;8.10;1.00
19292;DHT22;9779;51.756;7.450;2024-02-21T03:24:58;8.10;1.00
19292;DHT22;9779;51.756;7.450;2024-02-21T03:27:23;8.10;1.00
19292;DHT22;9779;51.756;7.450;2024-02-21T03:29:49;8.10;1.00
19292;DHT22;9779;51.756;7.450;2024-02-21T03:32:14;8.10;1.00
19292;DHT22;9779;51.756;7.450;2024-02-21T03:34:40;8.20;1.00
19292;DHT22;9779;51.756;7.450;2024-02-21T03:37:05;8.20;1.00
19292;DHT22;9779;51.756;7.450;2024-02-21T03:39:31;8.10;1.00
19292;DHT22;9779;51.756;7.450;2024-02-21T03:41:58;8.10;1.00
19292;DHT22;9779;51.756;7.450;2024-02-21T03:44:26;8.20;1.00
19292;DHT22;9779;51.756;7.450;2024-02-21T03:46:52;8.10;1.00
19292;DHT22;9779;51.756;7.450;2024-02-21T03:49:18;8.20;1.00
19292;DHT22;9779;51.756;7.450;2024-02-21T03:51:43;8.10;1.00
19292;DHT22;9779;51.756;7.450;2024-02-21T03:54:09;8.20;1.00
19292;DHT22;9779;51.756;7.450;2024-02-21T03:56:38;8.20;1.00
19292;DHT22;9779;51.756;7.450;2024-02-21T03:59:08;8.20;1.00
19292;DHT22;9779;51.756;7.450;2024-02-21T04:01:34;8.20;1.00
19292;DHT22;9779;51.756;7.450;2024-02-21T04:04:01;8.20;1.00
19292;DHT22;9779;51.756;7.450;2024-02-21T04:06:26;8.20;1.00
19292;DHT22;9779;51.756;7.450;2024-02-21T04:08:53;8.20;1.00
19292;DHT22;9779;51.756;7.450;2024-02-21T04:11:19;8.20;1.00
19292;DHT22;9779;51.756;7.450;2024-02-21T04:13:45;8.20;1.00
19292;DHT22;9779;51.756;7.450;2024-02-21T04:16:14;8.20;1.00
19292;DHT22;9779;51.756;7.450;2024-02-21T04:18:40;8.20;1.00
19292;DHT22;9779;51.756;7.450;2024-02-21T04:21:05;8.20;1.00
19292;DHT22;9779;51.756;7.450;2024-02-21T04:23:31;8.20;1.00
19292;DHT22;9779;51.756;7.450;2024-02-21T04:25:57;8.20;1.00
19292;DHT22;9779;51.756;7.450;2024-02-21T04:28:23;8.20;1.00
19292;DHT22;9779;51.756;7.450;2024-02-21T04:30:49;8.20;1.00
19292;DHT22;9779;51.756;7.450;2024-02-21T04:33:14;8.20;1.00
19292;DHT22;9779;51.756;7.450;2024-02-21T04:35:40;8.20;1.00
19292;DHT22;9779;51.756;7.450;2024-02-21T04:38:05;8.20;1.00
19292;DHT22;9779;51.756;7.450;2024-02-21T04:40:31;8.20;1.00
19292;DHT22;9779;51.756;7.450;2024-02-21T04:42:57;8.20;1.00
19292;DHT22;9779;51.756;7.450;2024-02-21T04:45:23;8.20;1.00
19292;DHT22;9779;51.756;7.450;2024-02-21T04:47:49;8.20;1.00
19292;DHT22;9779;51.756;7.450;2024-02-21T04:50:14;8.20;1.00
19292;DHT22;9779;51.756;7.450;2024-02-21T04:52:40;8.30;1.00
19292;DHT22;9779;51.756;7.450;2024-02-21T04:55:06;8.20;1.00
19292;DHT22;9779;51.756;7.450;2024-02-21T04:57:31;8.20;1.00
19292;DHT22;9779;51.756;7.450;2024-02-21T04:59:57;8.20;1.00
19292;DHT22;9779;51.756;7.450;2024-02-21T05:02:23;8.20;1.00
19292;DHT22;9779;51.756;7.450;2024-02-21T05:04:50;8.20;1.00
19292;DHT22;9779;51.756;7.450;2024-02-21T05:07:16;8.20;1.00
19292;DHT22;9779;51.756;7.450;2024-02-21T05:09:45;8.20;1.00
19292;DHT22;9779;51.756;7.450;2024-02-21T05:12:11;8.20;1.00
19292;DHT22;9779;51.756;7.450;2024-02-21T05:14:36;8.20;1.00
19292;DHT22;9779;51.756;7.450;2024-02-21T05:17:05;8.20;1.00
19292;DHT22;9779;51.756;7.450;2024-02-21T05:19:31;8.20;1.00
19292;DHT22;9779;51.756;7.450;2024-02-21T05:21:58;8.20;1.00
19292;DHT22;9779;51.756;7.450;2024-02-21T05:24:24;8.20;1.00
19292;DHT22;9779;51.756;7.450;2024-02-21T05:26:49;8.20;1.00
19292;DHT22;9779;51.756;7.450;2024-02-21T05:29:15;8.20;1.00
19292;DHT22;9779;51.756;7.450;2024-02-21T05:34:18;8.20;1.00
19292;DHT22;9779;51.756;7.450;2024-02-21T05:36:44;8.20;1.00
19292;DHT22;9779;51.756;7.450;2024-02-21T05:39:10;8.20;1.00
19292;DHT22;9779;51.756;7.450;2024-02-21T05:41:36;8.20;1.00
19292;DHT22;9779;51.756;7.450;2024-02-21T05:44:02;8.20;1.00
19292;DHT22;9779;51.756;7.450;2024-02-21T05:46:28;8.20;1.00
19292;DHT22;9779;51.756;7.450;2024-02-21T05:48:54;8.20;1.00
19292;DHT22;9779;51.756;7.450;2024-02-21T05:51:20;8.20;1.00
19292;DHT22;9779;51.756;7.450;2024-02-21T05:53:46;8.20;1.00
19292;DHT22;9779;51.756;7.450;2024-02-21T05:56:12;8.20;1.00
19292;DHT22;9779;51.756;7.450;2024-02-21T05:58:38;8.20;1.00
19292;DHT22;9779;51.756;7.450;2024-02-21T06:01:04;8.20;1.00
19292;DHT22;9779;51.756;7.450;2024-02-21T06:03:30;8.20;1.00
19292;DHT22;9779;51.756;7.450;2024-02-21T06:05:56;8.20;1.00
19292;DHT22;9779;51.756;7.450;2024-02-21T06:08:21;8.20;1.00
19292;DHT22;9779;51.756;7.450;2024-02-21T06:10:47;8.20;1.00
19292;DHT22;9779;51.756;7.450;2024-02-21T06:13:14;8.20;1.00
19292;DHT22;9779;51.756;7.450;2024-02-21T06:15:40;8.20;1.00
19292;DHT22;9779;51.756;7.450;2024-02-21T06:18:05;8.20;1.00
19292;DHT22;9779;51.756;7.450;2024-02-21T06:20:31;8.10;1.00
19292;DHT22;9779;51.756;7.450;2024-02-21T06:22:57;8.20;1.00
19292;DHT22;9779;51.756;7.450;2024-02-21T06:25:23;8.20;1.00
19292;DHT22;9779;51.756;7.450;2024-02-21T06:27:48;8.20;1.00
19292;DHT22;9779;51.756;7.450;2024-02-21T06:30:14;8.20;1.00
19292;DHT22;9779;51.756;7.450;2024-02-21T06:32:40;8.20;1.00
19292;DHT22;9779;51.756;7.450;2024-02-21T06:35:05;8.20;1.00
19292;DHT22;9779;51.756;7.450;2024-02-21T06:37:31;8.20;1.00
19292;DHT22;9779;51.756;7.450;2024-02-21T06:39:58;8.20;1.00
19292;DHT22;9779;51.756;7.450;2024-02-21T06:42:27;8.20;1.00
19292;DHT22;9779;51.756;7.450;2024-02-21T06:44:52;8.20;1.00
19292;DHT22;9779;51.756;7.450;2024-02-21T06:47:18;8.20;1.00
19292;DHT22;9779;51.756;7.450;2024-02-21T06:49:48;8.20;1.00
19292;DHT22;9779;51.756;7.450;2024-02-21T06:52:14;8.20;1.00
19292;DHT22;9779;51.756;7.450;2024-02-21T06:54:42;8.20;1.00
19292;DHT22;9779;51.756;7.450;2024-02-21T06:57:08;8.20;1.00
19292;DHT22;9779;51.756;7.450;2024-02-21T06:59:34;8.20;1.00
19292;DHT22;9779;51.756;7.450;2024-02-21T07:01:59;8.20;1.00
19292;DHT22;9779;51.756;7.450;2024-02-21T07:04:26;8.20;1.00
19292;DHT22;9779;51.756;7.450;2024-02-21T07:06:52;8.20;1.00
19292;DHT22;9779;51.756;7.450;2024-02-21T07:09:18;8.20;1.00
19292;DHT22;9779;51.756;7.450;2024-02-21T07:11:43;8.30;1.00
19292;DHT22;9779;51.756;7.450;2024-02-21T07:14:09;8.30;1.00
19292;DHT22;9779;51.756;7.450;2024-02-21T07:16:35;8.30;99.90
19292;DHT22;9779;51.756;7.450;2024-02-21T07:19:00;8.30;99.90
19292;DHT22;9779;51.756;7.450;2024-02-21T07:21:26;8.30;99.90
19292;DHT22;9779;51.756;7.450;2024-02-21T07:23:51;8.30;99.90
19292;DHT22;9779;51.756;7.450;2024-02-21T07:26:17;8.40;99.90
19292;DHT22;9779;51.756;7.450;2024-02-21T07:28:42;8.30;99.90
19292;DHT22;9779;51.756;7.450;2024-02-21T07:31:08;8.40;99.90
19292;DHT22;9779;51.756;7.450;2024-02-21T07:33:34;8.30;99.90
19292;DHT22;9779;51.756;7.450;2024-02-21T07:36:01;8.40;99.90
19292;DHT22;9779;51.756;7.450;2024-02-21T07:38:26;8.40;99.90
19292;DHT22;9779;51.756;7.450;2024-02-21T07:40:52;8.40;99.90
19292;DHT22;9779;51.756;7.450;2024-02-21T07:43:17;8.40;99.90
19292;DHT22;9779;51.756;7.450;2024-02-21T07:45:43;8.40;99.90
19292;DHT22;9779;51.756;7.450;2024-02-21T07:48:09;8.40;99.90
19292;DHT22;9779;51.756;7.450;2024-02-21T07:50:34;8.50;99.90
19292;DHT22;9779;51.756;7.450;2024-02-21T07:53:00;8.50;99.90
19292;DHT22;9779;51.756;7.450;2024-02-21T07:55:25;8.50;99.90
19292;DHT22;9779;51.756;7.450;2024-02-21T07:57:51;8.50;99.90
19292;DHT22;9779;51.756;7.450;2024-02-21T08:00:17;8.60;99.90
19292;DHT22;9779;51.756;7.450;2024-02-21T08:02:48;8.60;99.90
19292;DHT22;9779;51.756;7.450;2024-02-21T08:05:14;8.60;99.90
19292;DHT22;9779;51.756;7.450;2024-02-21T08:07:40;8.60;99.90
19292;DHT22;9779;51.756;7.450;2024-02-21T08:10:06;8.60;99.90
19292;DHT22;9779;51.756;7.450;2024-02-21T08:12:35;8.60;32.50
19292;DHT22;9779;51.756;7.450;2024-02-21T08:15:01;8.70;99.90
19292;DHT22;9779;51.756;7.450;2024-02-21T08:17:29;8.90;1.00
19292;DHT22;9779;51.756;7.450;2024-02-21T08:19:54;9.00;55.60
19292;DHT22;9779;51.756;7.450;2024-02-21T08:22:20;8.90;1.00
19292;DHT22;9779;51.756;7.450;2024-02-21T08:24:45;8.80;99.90
19292;DHT22;9779;51.756;7.450;2024-02-21T08:27:11;8.80;99.90
19292;DHT22;9779;51.756;7.450;2024-02-21T08:29:37;8.80;99.90
19292;DHT22;9779;51.756;7.450;2024-02-21T08:32:03;8.80;99.90
19292;DHT22;9779;51.756;7.450;2024-02-21T08:34:28;8.80;1.00
19292;DHT22;9779;51.756;7.450;2024-02-21T08:36:55;8.80;99.90
19292;DHT22;9779;51.756;7.450;2024-02-21T08:39:21;8.90;1.00
19292;DHT22;9779;51.756;7.450;2024-02-21T08:41:47;8.80;28.80
19292;DHT22;9779;51.756;7.450;2024-02-21T08:44:12;8.80;1.00
19292;DHT22;9779;51.756;7.450;2024-02-21T08:46:38;8.80;1.00
19292;DHT22;9779;51.756;7.450;2024-02-21T08:49:06;8.90;1.00
19292;DHT22;9779;51.756;7.450;2024-02-21T08:51:31;8.90;1.00
19292;DHT22;9779;51.756;7.450;2024-02-21T08:53:58;8.90;1.00
19292;DHT22;9779;51.756;7.450;2024-02-21T08:56:24;8.90;1.00
19292;DHT22;9779;51.756;7.450;2024-02-21T08:58:49;8.90;1.00
19292;DHT22;9779;51.756;7.450;2024-02-21T09:01:15;9.00;1.00
19292;DHT22;9779;51.756;7.450;2024-02-21T09:03:41;9.00;1.00
19292;DHT22;9779;51.756;7.450;2024-02-21T09:06:07;9.00;1.00
19292;DHT22;9779;51.756;7.450;2024-02-21T09:08:33;9.00;1.00
19292;DHT22;9779;51.756;7.450;2024-02-21T09:11:02;9.00;1.00
19292;DHT22;9779;51.756;7.450;2024-02-21T09:13:28;9.00;99.90
19292;DHT22;9779;51.756;7.450;2024-02-21T09:15:54;9.10;99.90
19292;DHT22;9779;51.756;7.450;2024-02-21T09:18:19;9.10;99.90
19292;DHT22;9779;51.756;7.450;2024-02-21T09:20:45;9.10;99.90
19292;DHT22;9779;51.756;7.450;2024-02-21T09:23:12;9.10;1.00
19292;DHT22;9779;51.756;7.450;2024-02-21T09:25:37;9.20;1.00
19292;DHT22;9779;51.756;7.450;2024-02-21T09:28:03;9.20;99.90
19292;DHT22;9779;51.756;7.450;2024-02-21T09:30:31;9.20;1.00
19292;DHT22;9779;51.756;7.450;2024-02-21T09:32:57;9.20;1.00
19292;DHT22;9779;51.756;7.450;2024-02-21T09:35:25;9.30;1.00
19292;DHT22;9779;51.756;7.450;2024-02-21T09:37:52;9.30;99.90
19292;DHT22;9779;51.756;7.450;2024-02-21T09:40:18;9.20;1.00
19292;DHT22;9779;51.756;7.450;2024-02-21T09:42:44;9.20;99.90
19292;DHT22;9779;51.756;7.450;2024-02-21T09:45:21;9.20;99.90
19292;DHT22;9779;51.756;7.450;2024-02-21T09:50:43;9.20;1.00
19292;DHT22;9779;51.756;7.450;2024-02-21T09:53:11;9.10;1.00
19292;DHT22;9779;51.756;7.450;2024-02-21T09:55:37;9.20;1.00
19292;DHT22;9779;51.756;7.450;2024-02-21T09:58:05;9.10;1.00
19292;DHT22;9779;51.756;7.450;2024-02-21T10:00:31;9.10;99.90
19292;DHT22;9779;51.756;7.450;2024-02-21T10:02:58;9.00;1.00
19292;DHT22;9779;51.756;7.450;2024-02-21T10:05:24;9.00;1.00
19292;DHT22;9779;51.756;7.450;2024-02-21T10:07:52;9.00;1.00
19292;DHT22;9779;51.756;7.450;2024-02-21T10:10:19;9.00;1.00
19292;DHT22;9779;51.756;7.450;2024-02-21T10:12:50;9.10;1.00
19292;DHT22;9779;51.756;7.450;2024-02-21T10:15:25;9.10;99.90
19292;DHT22;9779;51.756;7.450;2024-02-21T10:18:02;9.20;99.90
19292;DHT22;9779;51.756;7.450;2024-02-21T10:20:29;9.20;1.00
19292;DHT22;9779;51.756;7.450;2024-02-21T10:23:04;9.20;1.00
19292;DHT22;9779;51.756;7.450;2024-02-21T10:25:36;9.20;1.00
19292;DHT22;9779;51.756;7.450;2024-02-21T10:28:07;9.20;99.90
19292;DHT22;9779;51.756;7.450;2024-02-21T10:30:33;9.30;1.00
19292;DHT22;9779;51.756;7.450;2024-02-21T10:32:58;9.30;1.00
19292;DHT22;9779;51.756;7.450;2024-02-21T10:35:31;9.30;1.00
19292;DHT22;9779;51.756;7.450;2024-02-21T10:37:57;9.40;99.90
19292;DHT22;9779;51.756;7.450;2024-02-21T10:40:28;9.40;99.90
19292;DHT22;9779;51.756;7.450;2024-02-21T10:42:58;9.40;1.00
19292;DHT22;9779;51.756;7.450;2024-02-21T10:45:34;9.30;1.00
19292;DHT22;9779;51.756;7.450;2024-02-21T10:48:13;9.30;1.00
19292;DHT22;9779;51.756;7.450;2024-02-21T10:50:57;9.30;1.00
19292;DHT22;9779;51.756;7.450;2024-02-21T10:53:45;9.30;99.90
19292;DHT22;9779;51.756;7.450;2024-02-21T10:58:53;9.30;99.90
19292;DHT22;9779;51.756;7.450;2024-02-21T11:01:19;9.20;99.90
19292;DHT22;9779;51.756;7.450;2024-02-21T11:03:46;9.20;1.00
19292;DHT22;9779;51.756;7.450;2024-02-21T11:06:14;9.20;99.90
19292;DHT22;9779;51.756;7.450;2024-02-21T11:08:40;9.20;99.90
19292;DHT22;9779;51.756;7.450;2024-02-21T11:11:06;9.20;99.90
19292;DHT22;9779;51.756;7.450;2024-02-21T11:13:35;9.20;1.00
19292;DHT22;9779;51.756;7.450;2024-02-21T11:16:11;9.20;1.00
19292;DHT22;9779;51.756;7.450;2024-02-21T11:18:38;9.20;1.00
19292;DHT22;9779;51.756;7.450;2024-02-21T11:21:04;9.20;99.90
19292;DHT22;9779;51.756;7.450;2024-02-21T11:23:32;9.20;1.00
19292;DHT22;9779;51.756;7.450;2024-02-21T11:26:08;9.30;99.90
19292;DHT22;9779;51.756;7.450;2024-02-21T11:28:33;9.20;99.90
19292;DHT22;9779;51.756;7.450;2024-02-21T11:31:13;9.30;1.00
19292;DHT22;9779;51.756;7.450;2024-02-21T11:33:40;9.20;1.00
19292;DHT22;9779;51.756;7.450;2024-02-21T11:36:08;9.30;99.90
19292;DHT22;9779;51.756;7.450;2024-02-21T11:38:34;9.30;1.00
19292;DHT22;9779;51.756;7.450;2024-02-21T11:40:59;9.30;1.00
19292;DHT22;9779;51.756;7.450;2024-02-21T11:43:25;9.30;99.90
19292;DHT22;9779;51.756;7.450;2024-02-21T11:45:58;9.30;93.60
19292;DHT22;9779;51.756;7.450;2024-02-21T11:48:24;9.40;99.90
19292;DHT22;9779;51.756;7.450;2024-02-21T11:50:57;9.40;99.90
19292;DHT22;9779;51.756;7.450;2024-02-21T11:53:23;9.40;1.00
19292;DHT22;9779;51.756;7.450;2024-02-21T11:55:49;9.50;1.00
19292;DHT22;9779;51.756;7.450;2024-02-21T11:58:15;9.50;99.90
19292;DHT22;9779;51.756;7.450;2024-02-21T12:00:41;9.50;1.00
19292;DHT22;9779;51.756;7.450;2024-02-21T12:03:07;9.40;1.00
19292;DHT22;9779;51.756;7.450;2024-02-21T12:05:34;9.50;99.90
19292;DHT22;9779;51.756;7.450;2024-02-21T12:08:00;9.40;99.90
19292;DHT22;9779;51.756;7.450;2024-02-21T12:10:26;9.40;1.00
19292;DHT22;9779;51.756;7.450;2024-02-21T12:13:08;9.50;99.90
19292;DHT22;9779;51.756;7.450;2024-02-21T12:15:34;9.50;1.00
19292;DHT22;9779;51.756;7.450;2024-02-21T12:18:00;9.50;1.00
19292;DHT22;9779;51.756;7.450;2024-02-21T12:20:26;9.60;99.90
19292;DHT22;9779;51.756;7.450;2024-02-21T12:22:51;9.60;1.00
19292;DHT22;9779;51.756;7.450;2024-02-21T12:25:20;9.70;99.90
19292;DHT22;9779;51.756;7.450;2024-02-21T12:27:51;9.70;99.90
19292;DHT22;9779;51.756;7.450;2024-02-21T12:30:17;9.80;99.90
19292;DHT22;9779;51.756;7.450;2024-02-21T12:32:43;9.80;99.90
19292;DHT22;9779;51.756;7.450;2024-02-21T12:35:09;9.90;99.90
19292;DHT22;9779;51.756;7.450;2024-02-21T12:37:34;10.00;99.90
19292;DHT22;9779;51.756;7.450;2024-02-21T12:40:00;10.00;1.00
19292;DHT22;9779;51.756;7.450;2024-02-21T12:42:26;10.00;1.00
19292;DHT22;9779;51.756;7.450;2024-02-21T12:44:52;10.00;1.00
19292;DHT22;9779;51.756;7.450;2024-02-21T12:47:18;10.00;1.00
19292;DHT22;9779;51.756;7.450;2024-02-21T12:49:45;10.10;99.90
19292;DHT22;9779;51.756;7.450;2024-02-21T12:52:11;10.10;99.90
19292;DHT22;9779;51.756;7.450;2024-02-21T12:54:37;10.10;1.00
19292;DHT22;9779;51.756;7.450;2024-02-21T12:57:03;10.20;1.00
19292;DHT22;9779;51.756;7.450;2024-02-21T12:59:29;10.20;1.00
19292;DHT22;9779;51.756;7.450;2024-02-21T13:01:55;10.20;1.00
19292;DHT22;9779;51.756;7.450;2024-02-21T13:04:21;10.20;99.90
19292;DHT22;9779;51.756;7.450;2024-02-21T13:06:50;10.20;99.90
19292;DHT22;9779;51.756;7.450;2024-02-21T13:09:15;10.30;99.90
19292;DHT22;9779;51.756;7.450;2024-02-21T13:11:42;10.30;53.50
19292;DHT22;9779;51.756;7.450;2024-02-21T13:14:09;10.30;1.00
19292;DHT22;9779;51.756;7.450;2024-02-21T13:16:35;10.30;1.00
19292;DHT22;9779;51.756;7.450;2024-02-21T13:19:08;10.30;1.00
19292;DHT22;9779;51.756;7.450;2024-02-21T13:21:36;10.30;1.00
19292;DHT22;9779;51.756;7.450;2024-02-21T13:24:02;10.30;1.00
19292;DHT22;9779;51.756;7.450;2024-02-21T13:26:28;10.30;99.90
19292;DHT22;9779;51.756;7.450;2024-02-21T13:28:54;10.30;99.90
19292;DHT22;9779;51.756;7.450;2024-02-21T13:31:20;10.40;99.90
19292;DHT22;9779;51.756;7.450;2024-02-21T13:33:46;10.40;99.90
19292;DHT22;9779;51.756;7.450;2024-02-21T13:36:12;10.50;99.90
19292;DHT22;9779;51.756;7.450;2024-02-21T13:38:38;10.50;99.90
19292;DHT22;9779;51.756;7.450;2024-02-21T13:41:06;10.50;1.00
19292;DHT22;9779;51.756;7.450;2024-02-21T13:43:32;10.60;1.00
19292;DHT22;9779;51.756;7.450;2024-02-21T13:46:00;10.60;1.00
19292;DHT22;9779;51.756;7.450;2024-02-21T13:48:26;10.60;1.00
19292;DHT22;9779;51.756;7.450;2024-02-21T13:50:55;10.60;1.00
19292;DHT22;9779;51.756;7.450;2024-02-21T13:53:21;10.60;1.00
19292;DHT22;9779;51.756;7.450;2024-02-21T13:55:48;10.60;1.00
19292;DHT22;9779;51.756;7.450;2024-02-21T13:58:15;10.60;1.00
19292;DHT22;9779;51.756;7.450;2024-02-21T14:00:41;10.70;99.90
19292;DHT22;9779;51.756;7.450;2024-02-21T14:03:07;10.70;99.90
19292;DHT22;9779;51.756;7.450;2024-02-21T14:05:32;10.70;99.90
19292;DHT22;9779;51.756;7.450;2024-02-21T14:07:58;10.70;99.90
19292;DHT22;9779;51.756;7.450;2024-02-21T14:10:23;10.70;99.90
19292;DHT22;9779;51.756;7.450;2024-02-21T14:12:49;10.70;99.90
19292;DHT22;9779;51.756;7.450;2024-02-21T14:15:15;10.70;99.90
19292;DHT22;9779;51.756;7.450;2024-02-21T14:17:42;10.70;99.90
19292;DHT22;9779;51.756;7.450;2024-02-21T14:20:08;10.60;99.90
19292;DHT22;9779;51.756;7.450;2024-02-21T14:22:34;10.60;47.30
19292;DHT22;9779;51.756;7.450;2024-02-21T14:25:00;10.60;84.80
19292;DHT22;9779;51.756;7.450;2024-02-21T14:27:26;10.60;1.00
19292;DHT22;9779;51.756;7.450;2024-02-21T14:29:52;10.70;13.90
19292;DHT22;9779;51.756;7.450;2024-02-21T14:32:18;10.70;99.90
19292;DHT22;9779;51.756;7.450;2024-02-21T14:34:45;10.70;21.00
19292;DHT22;9779;51.756;7.450;2024-02-21T14:37:11;10.80;1.00
19292;DHT22;9779;51.756;7.450;2024-02-21T14:39:36;10.70;1.00
19292;DHT22;9779;51.756;7.450;2024-02-21T14:42:02;10.70;1.00
19292;DHT22;9779;51.756;7.450;2024-02-21T14:44:28;10.70;1.00
19292;DHT22;9779;51.756;7.450;2024-02-21T14:46:53;10.80;1.00
19292;DHT22;9779;51.756;7.450;2024-02-21T14:49:19;10.80;1.00
19292;DHT22;9779;51.756;7.450;2024-02-21T14:51:45;10.80;1.00
19292;DHT22;9779;51.756;7.450;2024-02-21T14:54:11;10.70;1.00
19292;DHT22;9779;51.756;7.450;2024-02-21T14:56:36;10.70;1.00
19292;DHT22;9779;51.756;7.450;2024-02-21T14:59:02;10.70;1.00
19292;DHT22;9779;51.756;7.450;2024-02-21T15:01:29;10.70;1.00
19292;DHT22;9779;51.756;7.450;2024-02-21T15:03:55;10.70;1.00
19292;DHT22;9779;51.756;7.450;2024-02-21T15:06:20;10.70;1.00
19292;DHT22;9779;51.756;7.450;2024-02-21T15:08:46;10.70;1.00
19292;DHT22;9779;51.756;7.450;2024-02-21T15:11:14;10.70;1.00
19292;DHT22;9779;51.756;7.450;2024-02-21T15:13:39;10.70;1.00
19292;DHT22;9779;51.756;7.450;2024-02-21T15:16:05;10.70;1.00
19292;DHT22;9779;51.756;7.450;2024-02-21T15:18:31;10.60;1.00
19292;DHT22;9779;51.756;7.450;2024-02-21T15:20:59;10.60;1.00
19292;DHT22;9779;51.756;7.450;2024-02-21T15:23:25;10.60;1.00
19292;DHT22;9779;51.756;7.450;2024-02-21T15:25:50;10.60;1.00
19292;DHT22;9779;51.756;7.450;2024-02-21T15:28:16;10.60;1.00
19292;DHT22;9779;51.756;7.450;2024-02-21T15:30:42;10.60;1.00
19292;DHT22;9779;51.756;7.450;2024-02-21T15:33:07;10.60;1.00
19292;DHT22;9779;51.756;7.450;2024-02-21T15:35:33;10.50;1.00
19292;DHT22;9779;51.756;7.450;2024-02-21T15:37:59;10.50;1.00
19292;DHT22;9779;51.756;7.450;2024-02-21T15:40:25;10.50;1.00
19292;DHT22;9779;51.756;7.450;2024-02-21T15:42:50;10.50;1.00
19292;DHT22;9779;51.756;7.450;2024-02-21T15:45:16;10.50;1.00
19292;DHT22;9779;51.756;7.450;2024-02-21T15:47:42;10.40;1.00
19292;DHT22;9779;51.756;7.450;2024-02-21T15:50:08;10.40;1.00
19292;DHT22;9779;51.756;7.450;2024-02-21T15:52:35;10.40;1.00
19292;DHT22;9779;51.756;7.450;2024-02-21T15:55:01;10.30;1.00
19292;DHT22;9779;51.756;7.450;2024-02-21T15:57:27;10.40;1.00
19292;DHT22;9779;51.756;7.450;2024-02-21T15:59:52;10.30;1.00
19292;DHT22;9779;51.756;7.450;2024-02-21T16:02:21;10.30;1.00
19292;DHT22;9779;51.756;7.450;2024-02-21T16:04:49;10.30;1.00
19292;DHT22;9779;51.756;7.450;2024-02-21T16:07:15;10.30;1.00
19292;DHT22;9779;51.756;7.450;2024-02-21T16:09:41;10.30;1.00
19292;DHT22;9779;51.756;7.450;2024-02-21T16:12:10;10.30;1.00